| time (UTC) | temp F | wind direction | speed MPH | gust MPH | rain 1hr in | rain 24hr in | rain mn in | humidity % | barometer mb |
| 20260505102114 | 33 | 86 | 0.0 | 0.0 | 0.00 | 0.23 | 0.23 | 95 | 1016.3 |
| 20260505101612 | 33 | 82 | 0.0 | 1.0 | 0.00 | 0.23 | 0.23 | 95 | 1016.2 |
| 20260505101108 | 33 | 76 | 0.0 | 1.0 | 0.07 | 0.23 | 0.23 | 95 | 1016.2 |
| 20260505100604 | 33 | 71 | 1.0 | 1.0 | 0.00 | 0.22 | 0.22 | 95 | 1015.9 |
| 20260505095558 | 34 | 62 | 0.0 | 0.0 | 0.07 | 0.22 | 0.22 | 95 | 1016.2 |
| 20260505095054 | 35 | 58 | 1.0 | 2.0 | 0.05 | 0.21 | 0.21 | 95 | 1016.2 |
| 20260505094551 | 35 | 55 | 0.0 | 1.0 | 0.05 | 0.21 | 0.21 | 95 | 1016.2 |
| 20260505094047 | 35 | 236 | 1.0 | 1.0 | 0.00 | 0.20 | 0.20 | 95 | 1016.3 |
| 20260505093543 | 36 | 237 | 1.0 | 1.0 | 0.07 | 0.20 | 0.20 | 95 | 1016.2 |
| 20260505093041 | 36 | 114 | 2.0 | 3.0 | 0.07 | 0.20 | 0.20 | 95 | 1016.1 |
| 20260505092538 | 36 | 32 | 2.0 | 3.0 | 0.05 | 0.19 | 0.19 | 94 | 1016.2 |
| 20260505092037 | 37 | 34 | 1.0 | 2.0 | 0.00 | 0.18 | 0.18 | 94 | 1016.2 |
| 20260505091533 | 37 | 38 | 1.0 | 3.0 | 0.07 | 0.18 | 0.18 | 94 | 1016.1 |
| 20260505091031 | 37 | 109 | 1.0 | 2.0 | 0.07 | 0.18 | 0.18 | 94 | 1016.1 |
| 20260505090529 | 37 | 19 | 1.0 | 1.0 | 0.05 | 0.17 | 0.17 | 94 | 1016.1 |
| 20260505090027 | 37 | 16 | 0.0 | 0.0 | 0.12 | 0.17 | 0.17 | 94 | 1015.9 |
| 20260505085524 | 38 | 150 | 0.0 | 0.0 | 0.12 | 0.16 | 0.16 | 94 | 1015.8 |
| 20260505085022 | 39 | 86 | 0.0 | 0.0 | 0.12 | 0.15 | 0.15 | 94 | 1015.8 |
| 20260505084520 | 39 | 78 | 1.0 | 3.0 | 0.07 | 0.14 | 0.14 | 94 | 1015.7 |
| 20260505084018 | 39 | 254 | 0.0 | 1.0 | 0.12 | 0.13 | 0.13 | 94 | 1015.8 |
| 20260505083515 | 39 | 105 | 0.0 | 1.0 | 0.12 | 0.12 | 0.12 | 94 | 1015.5 |
| 20260505083011 | 40 | 93 | 1.0 | 3.0 | 0.12 | 0.11 | 0.11 | 94 | 1015.5 |
| 20260505082507 | 40 | 188 | 1.0 | 2.0 | 0.07 | 0.10 | 0.10 | 94 | 1015.5 |
| 20260505082004 | 40 | 189 | 0.0 | 3.0 | 0.00 | 0.09 | 0.09 | 94 | 1015.6 |
| 20260505081501 | 40 | 194 | 0.0 | 1.0 | 0.00 | 0.09 | 0.09 | 93 | 1015.5 |
| 20260505080957 | 40 | 197 | 1.0 | 1.0 | 0.07 | 0.09 | 0.09 | 93 | 1015.6 |
| 20260505080454 | 41 | 198 | 0.0 | 2.0 | 0.12 | 0.09 | 0.09 | 93 | 1015.6 |
| 20260505075949 | 41 | 201 | 1.0 | 1.0 | 0.05 | 0.08 | 0.08 | 93 | 1015.5 |
| 20260505075446 | 41 | 202 | 0.0 | 0.0 | 0.07 | 0.07 | 0.07 | 93 | 1015.5 |
| 20260505074943 | 41 | 205 | 0.0 | 0.0 | 0.07 | 0.07 | 0.07 | 93 | 1015.4 |
| 20260505074441 | 41 | 208 | 0.0 | 0.0 | 0.00 | 0.06 | 0.06 | 92 | 1015.5 |
| 20260505073938 | 41 | 212 | 0.0 | 1.0 | 0.00 | 0.06 | 0.06 | 92 | 1015.7 |
| 20260505073436 | 41 | 216 | 0.0 | 4.0 | 0.05 | 0.06 | 0.06 | 92 | 1015.7 |
| 20260505072932 | 41 | 115 | 0.0 | 2.0 | 0.05 | 0.06 | 0.06 | 91 | 1015.5 |
| 20260505072429 | 41 | 116 | 0.0 | 1.0 | 0.07 | 0.05 | 0.05 | 91 | 1015.5 |
| 20260505071925 | 41 | 115 | 0.0 | 1.0 | 0.12 | 0.05 | 0.05 | 90 | 1015.4 |
| 20260505071421 | 42 | 112 | 0.0 | 2.0 | 0.05 | 0.04 | 0.04 | 90 | 1015.5 |
| 20260505070919 | 42 | 103 | 0.0 | 2.0 | 0.07 | 0.03 | 0.03 | 89 | 1015.5 |
| 20260505070415 | 42 | 92 | 1.0 | 2.0 | 0.07 | 0.03 | 0.03 | 89 | 1015.5 |
| 20260505065911 | 42 | 81 | 1.0 | 2.0 | 0.00 | 0.02 | 0.02 | 88 | 1015.5 |
| 20260505065408 | 42 | 276 | 1.0 | 1.0 | 0.05 | 0.02 | 0.02 | 87 | 1015.5 |
| 20260505064905 | 43 | 50 | 1.0 | 1.0 | 0.05 | 0.02 | 0.02 | 87 | 1015.5 |
| 20260505064402 | 43 | 312 | 1.0 | 2.0 | 0.00 | 0.01 | 0.01 | 85 | 1015.2 |
| 20260505063900 | 44 | 110 | 0.0 | 0.0 | 0.00 | 0.01 | 0.01 | 83 | 1015.2 |
| 20260505063356 | 44 | 338 | 1.0 | 4.0 | 0.07 | 0.01 | 0.01 | 82 | 1015.4 |
| 20260505062852 | 44 | 233 | 1.0 | 4.0 | 0.00 | 0.00 | 0.00 | 80 | 1015.2 |
| 20260505062350 | 44 | 52 | 1.0 | 3.0 | 0.00 | 0.00 | 0.00 | 81 | 1015.1 |
| 20260505061847 | 45 | 174 | 1.0 | 2.0 | 0.00 | 0.00 | 0.00 | 81 | 1015.2 |
| 20260505061345 | 45 | 120 | 1.0 | 3.0 | 0.00 | 0.00 | 0.00 | 81 | 1015.1 |
| 20260505060842 | 45 | 30 | 1.0 | 3.0 | 0.00 | 0.00 | 0.00 | 81 | 1015.4 |
| 20260505060339 | 45 | 60 | 1.0 | 4.0 | 0.00 | 0.00 | 0.00 | 81 | 1015.2 |
| 20260505055835 | 45 | 149 | 1.0 | 3.0 | 0.00 | 0.05 | 0.05 | 81 | 1015.1 |
| 20260505055331 | 45 | 44 | 2.0 | 3.0 | 0.00 | 0.05 | 0.05 | 83 | 1015.0 |
| 20260505054828 | 45 | 229 | 2.0 | 8.0 | 0.00 | 0.05 | 0.05 | 82 | 1015.0 |
| 20260505054325 | 46 | 275 | 3.0 | 9.0 | 0.00 | 0.05 | 0.05 | 81 | 1014.8 |
| 20260505053824 | 48 | 94 | 2.0 | 3.0 | 0.00 | 0.05 | 0.05 | 78 | 1014.5 |
| 20260505053320 | 48 | 30 | 2.0 | 3.0 | 0.00 | 0.05 | 0.05 | 82 | 1014.2 |
| 20260505052817 | 49 | 246 | 2.0 | 4.0 | 0.00 | 0.05 | 0.05 | 88 | 1014.1 |
| 20260505052314 | 49 | 189 | 0.0 | 0.0 | 0.00 | 0.05 | 0.05 | 88 | 1013.8 |
| 20260505051811 | 49 | 189 | 0.0 | 0.0 | 0.00 | 0.05 | 0.05 | 88 | 1013.8 |
| 20260505051309 | 49 | 189 | 0.0 | 0.0 | 0.00 | 0.05 | 0.05 | 88 | 1013.7 |
| 20260505050806 | 49 | 189 | 0.0 | 0.0 | 0.00 | 0.05 | 0.05 | 88 | 1013.7 |
| 20260505050305 | 49 | 189 | 0.0 | 0.0 | 0.00 | 0.05 | 0.05 | 87 | 1013.5 |
| 20260505041735 | 50 | 189 | 0.0 | 0.0 | 0.00 | 0.05 | 0.05 | 85 | 1013.3 |
| 20260505041232 | 50 | 189 | 0.0 | 0.0 | 0.00 | 0.05 | 0.05 | 84 | 1013.1 |
| 20260505040729 | 50 | 189 | 0.0 | 0.0 | 0.00 | 0.05 | 0.05 | 83 | 1013.1 |
| 20260505040226 | 50 | 189 | 0.0 | 0.0 | 0.00 | 0.05 | 0.05 | 84 | 1013.3 |
| 20260505035723 | 50 | 189 | 0.0 | 0.0 | 0.00 | 0.05 | 0.05 | 82 | 1013.0 |
| 20260505035219 | 50 | 189 | 0.0 | 0.0 | 0.00 | 0.05 | 0.05 | 81 | 1013.1 |
| 20260505034716 | 50 | 189 | 0.0 | 0.0 | 0.00 | 0.05 | 0.05 | 82 | 1013.1 |
| 20260505034213 | 50 | 189 | 0.0 | 0.0 | 0.00 | 0.05 | 0.05 | 83 | 1013.1 |
| 20260505033709 | 50 | 189 | 0.0 | 0.0 | 0.00 | 0.05 | 0.05 | 83 | 1013.3 |
| 20260505033208 | 49 | 189 | 0.0 | 0.0 | 0.00 | 0.05 | 0.05 | 83 | 1013.1 |
| 20260505032705 | 49 | 189 | 0.0 | 0.0 | 0.00 | 0.05 | 0.05 | 83 | 1013.0 |
| 20260505032201 | 50 | 189 | 0.0 | 0.0 | 0.00 | 0.05 | 0.05 | 83 | 1012.9 |
| 20260505031658 | 50 | 189 | 0.0 | 0.0 | 0.00 | 0.05 | 0.05 | 82 | 1012.9 |
| 20260505031154 | 50 | 189 | 0.0 | 0.0 | 0.00 | 0.05 | 0.05 | 82 | 1012.8 |
| 20260505030651 | 50 | 189 | 0.0 | 0.0 | 0.00 | 0.05 | 0.05 | 81 | 1012.9 |
| 20260505030147 | 51 | 189 | 0.0 | 0.0 | 0.00 | 0.05 | 0.05 | 80 | 1012.7 |
| 20260505025643 | 51 | 189 | 0.0 | 0.0 | 0.00 | 0.05 | 0.05 | 79 | 1012.9 |
| 20260505025142 | 51 | 188 | 0.0 | 0.0 | 0.00 | 0.05 | 0.05 | 79 | 1012.7 |
| 20260505024639 | 50 | 188 | 0.0 | 0.0 | 0.00 | 0.05 | 0.05 | 81 | 1012.6 |
| 20260505024136 | 50 | 188 | 0.0 | 0.0 | 0.00 | 0.05 | 0.05 | 81 | 1012.7 |
| 20260505023634 | 50 | 188 | 0.0 | 0.0 | 0.00 | 0.05 | 0.05 | 81 | 1012.4 |
| 20260505023131 | 50 | 188 | 0.0 | 0.0 | 0.00 | 0.05 | 0.05 | 81 | 1012.3 |
| 20260505022628 | 50 | 188 | 0.0 | 0.0 | 0.00 | 0.05 | 0.05 | 82 | 1012.2 |
| 20260505022125 | 50 | 188 | 0.0 | 0.0 | 0.00 | 0.05 | 0.05 | 82 | 1012.2 |
| 20260505021622 | 51 | 188 | 0.0 | 1.0 | 0.00 | 0.05 | 0.05 | 81 | 1012.2 |
| 20260505021119 | 51 | 188 | 0.0 | 0.0 | 0.00 | 0.05 | 0.05 | 80 | 1012.2 |
| 20260505020614 | 51 | 188 | 0.0 | 0.0 | 0.00 | 0.05 | 0.05 | 80 | 1012.3 |
| 20260505020111 | 51 | 188 | 0.0 | 0.0 | 0.00 | 0.05 | 0.05 | 77 | 1012.2 |
| 20260505015608 | 52 | 188 | 0.0 | 0.0 | 0.00 | 0.05 | 0.05 | 76 | 1012.2 |
| 20260505015105 | 52 | 189 | 0.0 | 0.0 | 0.00 | 0.05 | 0.05 | 75 | 1012.2 |
| 20260505014601 | 53 | 191 | 0.0 | 0.0 | 0.00 | 0.05 | 0.05 | 72 | 1012.3 |
| 20260505014058 | 53 | 218 | 0.0 | 0.0 | 0.00 | 0.05 | 0.05 | 66 | 1012.4 |
| 20260505013555 | 51 | 187 | 4.0 | 4.0 | 0.00 | 0.05 | 0.05 | 72 | 1012.1 |
| 20260505013053 | 51 | 176 | 0.0 | 0.0 | 0.00 | 0.05 | 0.05 | 75 | 1012.4 |
| 20260505012551 | 52 | 178 | 0.0 | 2.0 | 0.00 | 0.05 | 0.05 | 74 | 1012.4 |
| 20260505012047 | 52 | 212 | 2.0 | 4.0 | 0.00 | 0.05 | 0.05 | 74 | 1012.1 |
| 20260505011543 | 52 | 237 | 4.0 | 6.0 | 0.00 | 0.05 | 0.05 | 73 | 1012.4 |
| 20260505011041 | 52 | 214 | 0.0 | 7.0 | 0.00 | 0.05 | 0.05 | 73 | 1012.2 |
| 20260505010536 | 52 | 232 | 4.0 | 7.0 | 0.00 | 0.05 | 0.05 | 74 | 1012.2 |
| 20260505010033 | 52 | 229 | 6.0 | 8.0 | 0.00 | 0.05 | 0.05 | 75 | 1012.1 |
| 20260505005529 | 52 | 242 | 2.0 | 8.0 | 0.00 | 0.05 | 0.05 | 75 | 1011.9 |
| 20260505005027 | 51 | 179 | 4.0 | 7.0 | 0.00 | 0.05 | 0.05 | 77 | 1012.0 |
| 20260505004523 | 51 | 263 | 2.0 | 6.0 | 0.00 | 0.05 | 0.05 | 78 | 1012.1 |
| 20260505004020 | 51 | 252 | 5.0 | 6.0 | 0.00 | 0.05 | 0.05 | 78 | 1012.1 |
| 20260505003517 | 51 | 209 | 4.0 | 9.0 | 0.00 | 0.05 | 0.05 | 76 | 1011.9 |
| 20260505003015 | 51 | 270 | 6.0 | 7.0 | 0.00 | 0.05 | 0.05 | 77 | 1012.0 |
| 20260505002509 | 52 | 192 | 0.0 | 6.0 | 0.05 | 0.05 | 0.05 | 76 | 1012.2 |
| 20260505002009 | 52 | 194 | 4.0 | 9.0 | 0.12 | 0.05 | 0.05 | 74 | 1012.2 |
| 20260505001506 | 53 | 209 | 0.0 | 0.0 | 0.07 | 0.04 | 0.04 | 74 | 1012.6 |
| 20260505001003 | 54 | 244 | 2.0 | 3.0 | 0.05 | 0.03 | 0.03 | 66 | 1012.3 |
| 20260505000500 | 55 | 215 | 2.0 | 6.0 | 0.05 | 0.03 | 0.03 | 64 | 1012.3 |
| 20260504235957 | 55 | 217 | 4.0 | 8.0 | 0.00 | 0.02 | 0.02 | 62 | 1012.2 |
| 20260504235454 | 55 | 254 | 4.0 | 9.0 | 0.00 | 0.02 | 0.02 | 58 | 1012.0 |
| 20260504234950 | 57 | 220 | 5.0 | 11.0 | 0.00 | 0.02 | 0.02 | 57 | 1011.7 |
| 20260504234448 | 58 | 227 | 4.0 | 7.0 | 0.00 | 0.02 | 0.02 | 52 | 1011.7 |
| 20260504233944 | 60 | 200 | 8.0 | 11.0 | 0.00 | 0.02 | 0.02 | 46 | 1011.5 |
| 20260504233440 | 60 | 199 | 0.0 | 2.0 | 0.00 | 0.02 | 0.02 | 44 | 1011.5 |
| 20260504232937 | 61 | 196 | 2.0 | 4.0 | 0.00 | 0.02 | 0.02 | 43 | 1011.4 |
| 20260504232434 | 61 | 290 | 0.0 | 0.0 | 0.00 | 0.02 | 0.02 | 42 | 1011.3 |
| 20260504231932 | 61 | 287 | 0.0 | 0.0 | 0.00 | 0.02 | 0.02 | 42 | 1011.0 |
| 20260504231427 | 61 | 270 | 0.0 | 0.0 | 0.00 | 0.02 | 0.02 | 42 | 1010.8 |
| 20260504230924 | 61 | 242 | 0.0 | 0.0 | 0.00 | 0.02 | 0.02 | 42 | 1010.7 |
| 20260504230421 | 62 | 19 | 0.0 | 0.0 | 0.00 | 0.02 | 0.02 | 42 | 1010.8 |
| 20260504225920 | 62 | 194 | 0.0 | 0.0 | 0.00 | 0.02 | 0.02 | 41 | 1010.6 |
| 20260504225416 | 62 | 218 | 0.0 | 0.0 | 0.00 | 0.02 | 0.02 | 41 | 1010.6 |
| 20260504224914 | 62 | 305 | 0.0 | 4.0 | 0.00 | 0.02 | 0.02 | 40 | 1010.5 |
| 20260504224410 | 63 | 189 | 3.0 | 4.0 | 0.00 | 0.02 | 0.02 | 39 | 1010.3 |
| 20260504223907 | 64 | 290 | 1.0 | 6.0 | 0.00 | 0.02 | 0.02 | 39 | 1010.3 |
| 20260504223403 | 63 | 92 | 0.0 | 1.0 | 0.00 | 0.02 | 0.02 | 40 | 1010.3 |
| 20260504222859 | 62 | 345 | 1.0 | 6.0 | 0.00 | 0.02 | 0.02 | 40 | 1010.5 |
| 20260504222356 | 61 | 231 | 1.0 | 2.0 | 0.00 | 0.02 | 0.02 | 42 | 1010.1 |
| 20260504221855 | 61 | 279 | 1.0 | 3.0 | 0.00 | 0.02 | 0.02 | 41 | 1010.3 |
| 20260504221351 | 61 | 301 | 1.0 | 3.0 | 0.00 | 0.02 | 0.02 | 41 | 1010.5 |
| 20260504220848 | 61 | 288 | 0.0 | 2.0 | 0.00 | 0.02 | 0.02 | 42 | 1010.5 |
| 20260504220344 | 62 | 285 | 0.0 | 4.0 | 0.00 | 0.02 | 0.02 | 42 | 1010.7 |
| 20260504215842 | 62 | 324 | 3.0 | 8.0 | 0.00 | 0.02 | 0.02 | 40 | 1010.7 |
| 20260504215338 | 62 | 243 | 1.0 | 3.0 | 0.00 | 0.02 | 0.02 | 42 | 1011.2 |
| 20260504214834 | 63 | 261 | 2.0 | 3.0 | 0.00 | 0.02 | 0.02 | 41 | 1010.9 |
| 20260504214331 | 62 | 327 | 2.0 | 7.0 | 0.00 | 0.02 | 0.02 | 42 | 1011.2 |
| 20260504213828 | 62 | 269 | 2.0 | 3.0 | 0.00 | 0.02 | 0.02 | 43 | 1011.3 |
| 20260504213324 | 61 | 343 | 0.0 | 3.0 | 0.00 | 0.02 | 0.02 | 44 | 1011.3 |
| 20260504212822 | 61 | 297 | 3.0 | 7.0 | 0.00 | 0.02 | 0.02 | 46 | 1011.3 |
| 20260504212317 | 61 | 251 | 2.0 | 4.0 | 0.00 | 0.02 | 0.02 | 49 | 1011.2 |
| 20260504211815 | 61 | 272 | 1.0 | 4.0 | 0.00 | 0.02 | 0.02 | 51 | 1011.4 |
| 20260504211311 | 60 | 209 | 0.0 | 1.0 | 0.00 | 0.02 | 0.02 | 55 | 1011.3 |
| 20260504210809 | 58 | 200 | 0.0 | 0.0 | 0.00 | 0.02 | 0.02 | 55 | 1011.0 |
| 20260504210306 | 57 | 196 | 0.0 | 0.0 | 0.00 | 0.02 | 0.02 | 61 | 1011.2 |
| 20260504205803 | 56 | 140 | 0.0 | 1.0 | 0.07 | 0.02 | 0.02 | 63 | 1011.3 |
| 20260504205301 | 57 | 176 | 1.0 | 1.0 | 0.07 | 0.02 | 0.02 | 61 | 1011.6 |
| 20260504204759 | 58 | 154 | 0.0 | 1.0 | 0.00 | 0.01 | 0.01 | 49 | 1012.0 |
| 20260504204256 | 59 | 208 | 1.0 | 4.0 | 0.00 | 0.01 | 0.01 | 49 | 1012.3 |
| 20260504203756 | 59 | 192 | 2.0 | 7.0 | 0.00 | 0.01 | 0.01 | 47 | 1012.4 |
| 20260504203252 | 59 | 200 | 1.0 | 2.0 | 0.00 | 0.01 | 0.01 | 49 | 1012.1 |
| 20260504202747 | 59 | 197 | 0.0 | 0.0 | 0.00 | 0.01 | 0.01 | 47 | 1012.3 |
| 20260504202245 | 59 | 105 | 2.0 | 6.0 | 0.00 | 0.01 | 0.01 | 45 | 1012.1 |
| 20260504201742 | 59 | 184 | 0.0 | 1.0 | 0.00 | 0.01 | 0.01 | 47 | 1012.2 |
| 20260504201239 | 60 | 69 | 1.0 | 1.0 | 0.00 | 0.01 | 0.01 | 48 | 1012.1 |
| 20260504200737 | 59 | 166 | 2.0 | 6.0 | 0.00 | 0.01 | 0.01 | 47 | 1012.0 |
| 20260504200232 | 58 | 165 | 0.0 | 1.0 | 0.00 | 0.01 | 0.01 | 52 | 1012.0 |
| 20260504195729 | 58 | 198 | 0.0 | 2.0 | 0.07 | 0.01 | 0.01 | 51 | 1011.9 |
| 20260504195225 | 57 | 52 | 2.0 | 6.0 | 0.07 | 0.01 | 0.01 | 52 | 1011.9 |
| 20260504194722 | 58 | 59 | 0.0 | 2.0 | 0.00 | 0.00 | 0.00 | 54 | 1011.7 |
| 20260504194218 | 60 | 70 | 2.0 | 4.0 | 0.00 | 0.00 | 0.00 | 48 | 1011.7 |
| 20260504193715 | 61 | 20 | 2.0 | 8.0 | 0.00 | 0.00 | 0.00 | 41 | 1011.7 |
| 20260504193212 | 62 | 325 | 2.0 | 8.0 | 0.00 | 0.00 | 0.00 | 35 | 1011.7 |
| 20260504192711 | 64 | 336 | 3.0 | 6.0 | 0.00 | 0.00 | 0.00 | 33 | 1011.4 |
| 20260504192208 | 65 | 241 | 0.0 | 2.0 | 0.00 | 0.00 | 0.00 | 32 | 1011.2 |
| 20260504191707 | 65 | 204 | 1.0 | 2.0 | 0.00 | 0.00 | 0.00 | 31 | 1010.7 |
| 20260504191203 | 65 | 196 | 0.0 | 0.0 | 0.00 | 0.00 | 0.00 | 31 | 1010.7 |
| 20260504190658 | 65 | 154 | 0.0 | 0.0 | 0.00 | 0.00 | 0.00 | 33 | 1010.6 |
| 20260504190155 | 65 | 131 | 0.0 | 0.0 | 0.00 | 0.00 | 0.00 | 34 | 1010.5 |
| 20260504185651 | 66 | 103 | 2.0 | 2.0 | 0.00 | 0.00 | 0.00 | 36 | 1010.5 |
| 20260504185148 | 68 | 297 | 6.0 | 11.0 | 0.00 | 0.00 | 0.00 | 26 | 1010.5 |
| 20260504184644 | 68 | 249 | 0.0 | 0.0 | 0.00 | 0.00 | 0.00 | 26 | 1010.2 |
| 20260504184139 | 69 | 206 | 2.0 | 10.0 | 0.00 | 0.00 | 0.00 | 25 | 1010.1 |
| 20260504183636 | 69 | 197 | 1.0 | 2.0 | 0.00 | 0.00 | 0.00 | 24 | 1009.9 |
| 20260504183134 | 69 | 209 | 0.0 | 4.0 | 0.00 | 0.00 | 0.00 | 22 | 1009.8 |
| 20260504182632 | 70 | 142 | 0.0 | 1.0 | 0.00 | 0.00 | 0.00 | 22 | 1009.8 |
| 20260504182129 | 69 | 177 | 1.0 | 2.0 | 0.00 | 0.00 | 0.00 | 23 | 1010.1 |
| 20260504181626 | 70 | 197 | 1.0 | 6.0 | 0.00 | 0.00 | 0.00 | 24 | 1010.1 |
| 20260504181123 | 70 | 173 | 1.0 | 2.0 | 0.00 | 0.00 | 0.00 | 23 | 1010.0 |
| 20260504180623 | 70 | 203 | 0.0 | 1.0 | 0.00 | 0.00 | 0.00 | 22 | 1010.0 |
| 20260504180121 | 70 | 228 | 0.0 | 6.0 | 0.00 | 0.00 | 0.00 | 22 | 1009.9 |
| 20260504175618 | 72 | 227 | 3.0 | 8.0 | 0.00 | 0.00 | 0.00 | 22 | 1010.0 |
| 20260504175114 | 71 | 180 | 0.0 | 2.0 | 0.00 | 0.00 | 0.00 | 23 | 1010.0 |
| 20260504174613 | 71 | 290 | 1.0 | 6.0 | 0.00 | 0.00 | 0.00 | 24 | 1010.1 |
| 20260504174109 | 72 | 207 | 4.0 | 7.0 | 0.00 | 0.00 | 0.00 | 22 | 1010.0 |
| 20260504173606 | 71 | 255 | 2.0 | 7.0 | 0.00 | 0.00 | 0.00 | 23 | 1010.3 |
| 20260504173104 | 71 | 267 | 6.0 | 8.0 | 0.00 | 0.00 | 0.00 | 23 | 1010.3 |
| 20260504172600 | 71 | 255 | 4.0 | 8.0 | 0.00 | 0.00 | 0.00 | 22 | 1010.1 |
| 20260504172056 | 71 | 238 | 2.0 | 6.0 | 0.00 | 0.00 | 0.00 | 22 | 1010.3 |
| 20260504171553 | 71 | 309 | 4.0 | 7.0 | 0.00 | 0.00 | 0.00 | 21 | 1010.5 |
| 20260504171050 | 71 | 349 | 6.0 | 13.0 | 0.00 | 0.00 | 0.00 | 22 | 1010.6 |
| 20260504170545 | 70 | 203 | 2.0 | 4.0 | 0.00 | 0.00 | 0.00 | 24 | 1010.6 |
| 20260504150930 | 63 | 124 | 0.0 | 0.0 | 0.00 | 0.00 | 0.00 | 37 | 1010.8 |
| 20260504150426 | 61 | 138 | 0.0 | 0.0 | 0.00 | 0.00 | 0.00 | 40 | 1010.9 |
| 20260504140853 | 54 | 172 | 0.0 | 0.0 | 0.00 | 0.00 | 0.00 | 49 | 1011.3 |
| 20260504140349 | 53 | 143 | 0.0 | 0.0 | 0.00 | 0.00 | 0.00 | 48 | 1011.4 |
| 20260504130818 | 45 | 195 | 0.0 | 0.0 | 0.00 | 0.00 | 0.00 | 64 | 1011.5 |
| 20260504130314 | 44 | 164 | 0.0 | 0.0 | 0.00 | 0.00 | 0.00 | 67 | 1011.2 |
| 20260504120237 | 40 | 164 | 0.0 | 0.0 | 0.00 | 0.00 | 0.00 | 71 | 1011.0 |
| 20260504110705 | 41 | 164 | 0.0 | 0.0 | 0.00 | 0.00 | 0.00 | 68 | 1011.4 |
| 20260504110201 | 41 | 163 | 0.0 | 0.0 | 0.00 | 0.00 | 0.00 | 69 | 1011.2 |